createdAt,value
2018-10-11T00:00:07.371Z,73.80
2018-10-11T00:02:38.334Z,73.90
2018-10-11T00:05:09.051Z,74.50
2018-10-11T00:07:41.604Z,74.70
2018-10-11T00:10:16.646Z,74.10
2018-10-11T00:12:51.156Z,73.30
2018-10-11T00:15:22.570Z,73.30
2018-10-11T00:17:53.216Z,72.90
2018-10-11T00:20:25.038Z,73.80
2018-10-11T00:22:56.467Z,73.40
2018-10-11T00:25:28.562Z,73.10
2018-10-11T00:28:00.301Z,72.70
2018-10-11T00:30:29.496Z,73.40
2018-10-11T00:33:02.197Z,72.60
2018-10-11T00:35:33.841Z,72.80
2018-10-11T00:38:03.445Z,72.30
2018-10-11T00:40:34.422Z,73.10
2018-10-11T00:43:04.700Z,73.50
2018-10-11T00:45:35.744Z,74.30
2018-10-11T00:48:06.520Z,74.00
2018-10-11T00:50:37.050Z,73.60
2018-10-11T00:53:08.706Z,74.20
2018-10-11T00:55:38.320Z,73.90
2018-10-11T00:58:10.236Z,73.70
2018-10-11T01:00:41.695Z,73.60
2018-10-11T01:03:11.428Z,73.60
2018-10-11T01:05:45.784Z,74.00
2018-10-11T01:08:16.257Z,75.10
2018-10-11T01:10:46.099Z,76.00
2018-10-11T01:13:16.990Z,76.20
2018-10-11T01:15:46.711Z,75.70
2018-10-11T01:18:16.602Z,74.30
2018-10-11T01:20:47.927Z,74.60
2018-10-11T01:23:18.934Z,75.40
2018-10-11T01:25:48.133Z,76.10
2018-10-11T01:28:17.153Z,77.30
2018-10-11T01:30:51.990Z,76.70
2018-10-11T01:35:56.133Z,76.70
2018-10-11T01:38:26.172Z,76.70
2018-10-11T01:40:57.948Z,76.40
2018-10-11T01:43:27.153Z,77.00
2018-10-11T01:45:56.550Z,76.50
2018-10-11T01:48:26.137Z,76.50
2018-10-11T01:50:57.516Z,76.20
2018-10-11T01:53:29.248Z,76.50
2018-10-11T01:56:02.633Z,76.70
2018-10-11T01:58:32.875Z,77.40
2018-10-11T02:01:04.431Z,76.90
2018-10-11T02:03:35.077Z,77.10
2018-10-11T02:06:04.274Z,75.90
2018-10-11T02:08:33.372Z,75.40
2018-10-11T02:11:04.564Z,75.80
2018-10-11T02:13:35.569Z,76.00
2018-10-11T02:16:05.033Z,75.00
2018-10-11T02:18:34.256Z,75.30
2018-10-11T02:21:03.983Z,74.70
2018-10-11T02:23:32.996Z,75.40
2018-10-11T02:26:04.688Z,75.40
2018-10-11T02:28:34.420Z,76.20
2018-10-11T02:31:03.969Z,77.10
2018-10-11T02:33:34.597Z,76.80
2018-10-11T02:36:05.245Z,77.20
2018-10-11T02:38:36.398Z,77.30
2018-10-11T02:41:06.861Z,76.70
2018-10-11T02:43:36.495Z,77.30
2018-10-11T02:46:06.757Z,76.80
2018-10-11T02:48:36.429Z,75.80
2018-10-11T02:51:06.191Z,76.30
2018-10-11T02:53:36.144Z,77.00
2018-10-11T02:56:05.735Z,77.10
2018-10-11T02:58:51.781Z,77.00
2018-10-11T03:01:22.240Z,76.60
2018-10-11T03:03:58.222Z,76.20
2018-10-11T03:06:27.400Z,77.00
2018-10-11T03:08:57.607Z,76.80
2018-10-11T03:11:26.679Z,78.00
2018-10-11T03:13:56.803Z,78.10
2018-10-11T03:16:25.844Z,78.40
2018-10-11T03:18:57.163Z,78.40
2018-10-11T03:24:05.161Z,78.40
2018-10-11T03:26:34.276Z,78.60
2018-10-11T03:29:03.493Z,79.10
2018-10-11T03:31:35.551Z,78.70
2018-10-11T03:34:04.479Z,79.10
2018-10-11T03:36:35.160Z,78.60
2018-10-11T03:39:06.089Z,78.50
2018-10-11T03:41:36.555Z,78.40
2018-10-11T03:44:05.821Z,78.80
2018-10-11T03:46:36.153Z,77.70
2018-10-11T03:49:07.459Z,77.10
2018-10-11T03:51:37.082Z,76.80
2018-10-11T03:54:06.785Z,76.60
2018-10-11T03:56:41.449Z,76.10
2018-10-11T03:59:14.496Z,76.30
2018-10-11T04:01:47.050Z,77.00
2018-10-11T04:04:17.556Z,76.50
2018-10-11T04:06:46.528Z,76.10
2018-10-11T04:09:15.748Z,76.20
2018-10-11T04:11:45.702Z,76.60
2018-10-11T04:14:17.382Z,75.60
2018-10-11T04:16:46.501Z,74.70
2018-10-11T04:19:16.663Z,74.60
2018-10-11T04:21:46.239Z,75.10
2018-10-11T04:24:15.765Z,75.30
2018-10-11T04:26:47.022Z,76.00
2018-10-11T04:29:17.892Z,76.00
2018-10-11T04:31:47.667Z,76.40
2018-10-11T04:34:18.826Z,76.60
2018-10-11T04:36:49.579Z,76.70
2018-10-11T04:39:22.606Z,76.00
2018-10-11T04:41:53.150Z,77.20
2018-10-11T04:44:23.452Z,77.10
2018-10-11T04:46:53.140Z,77.10
2018-10-11T04:49:23.534Z,77.70
2018-10-11T04:51:53.316Z,78.00
2018-10-11T04:54:28.113Z,78.00
2018-10-11T04:56:58.907Z,78.10
2018-10-11T04:59:31.395Z,77.30
2018-10-11T05:02:00.641Z,78.30
2018-10-11T05:07:04.247Z,77.50
2018-10-11T05:09:34.277Z,78.60
2018-10-11T05:12:06.211Z,79.00
2018-10-11T05:14:36.355Z,79.00
2018-10-11T05:17:08.811Z,78.30
2018-10-11T05:19:40.685Z,77.60
2018-10-11T05:22:11.110Z,76.40
2018-10-11T05:24:41.190Z,77.30
2018-10-11T05:27:10.878Z,76.50
2018-10-11T05:29:41.432Z,77.10
2018-10-11T05:32:10.670Z,76.20
2018-10-11T05:34:40.463Z,76.60
2018-10-11T05:37:10.658Z,76.60
2018-10-11T05:39:40.833Z,76.50
2018-10-11T05:42:10.898Z,75.40
2018-10-11T05:44:42.264Z,75.80
2018-10-11T05:47:11.816Z,76.20
2018-10-11T05:49:41.206Z,75.70
2018-10-11T05:52:11.684Z,75.60
2018-10-11T05:54:41.548Z,76.30
2018-10-11T05:57:13.280Z,76.20
2018-10-11T05:59:45.126Z,77.50
2018-10-11T06:02:15.341Z,77.70
2018-10-11T06:04:45.416Z,77.20
2018-10-11T06:07:16.852Z,76.60
2018-10-11T06:09:46.230Z,76.40
2018-10-11T06:12:15.706Z,76.40
2018-10-11T06:14:44.966Z,76.30
2018-10-11T06:17:14.680Z,76.20
2018-10-11T06:19:45.536Z,76.30
2018-10-11T06:22:15.410Z,77.30
2018-10-11T06:24:45.349Z,77.00
2018-10-11T06:27:14.613Z,77.40
2018-10-11T06:29:44.860Z,76.60
2018-10-11T06:32:14.155Z,77.40
2018-10-11T06:34:44.554Z,77.10
2018-10-11T06:37:14.702Z,77.20
2018-10-11T06:39:44.824Z,77.20
2018-10-11T06:42:15.872Z,76.40
2018-10-11T06:44:45.514Z,77.50
2018-10-11T06:47:18.418Z,75.90
2018-10-11T06:49:51.115Z,75.30
2018-10-11T06:52:22.083Z,75.80
2018-10-11T06:54:53.846Z,75.00
2018-10-11T06:58:58.212Z,75.00
2018-10-11T07:01:28.995Z,74.60
2018-10-11T07:04:00.611Z,74.60
2018-10-11T07:06:29.624Z,75.10
2018-10-11T07:08:58.655Z,75.60
2018-10-11T07:11:28.308Z,75.10
2018-10-11T07:13:57.903Z,75.20
2018-10-11T07:16:27.105Z,75.20
2018-10-11T07:18:56.010Z,74.40
2018-10-11T07:21:24.901Z,74.40
2018-10-11T07:23:54.804Z,73.50
2018-10-11T07:26:25.474Z,73.30
2018-10-11T07:28:54.386Z,72.40
2018-10-11T07:31:23.300Z,72.40
2018-10-11T07:33:52.688Z,72.20
2018-10-11T07:36:21.640Z,71.60
2018-10-11T07:38:50.411Z,70.70
2018-10-11T07:41:19.237Z,70.70
2018-10-11T07:43:47.901Z,70.60
2018-10-11T07:46:17.043Z,70.10
2018-10-11T07:48:47.533Z,70.70
2018-10-11T07:51:19.767Z,69.70
2018-10-11T07:53:55.084Z,69.60
2018-10-11T07:56:27.120Z,70.00
2018-10-11T07:58:57.298Z,70.10
2018-10-11T08:01:27.100Z,69.90
2018-10-11T08:03:56.574Z,69.00
2018-10-11T08:06:26.349Z,69.20
2018-10-11T08:08:56.174Z,68.90
2018-10-11T08:11:25.903Z,68.60
2018-10-11T08:13:55.724Z,69.80
2018-10-11T08:16:24.784Z,68.30
2018-10-11T08:18:53.622Z,67.70
2018-10-11T08:21:22.537Z,66.60
2018-10-11T08:23:53.843Z,66.30
2018-10-11T08:26:27.445Z,66.00
2018-10-11T08:28:57.072Z,64.30
2018-10-11T08:31:27.111Z,63.40
2018-10-11T08:33:59.009Z,62.70
2018-10-11T08:36:31.166Z,63.00
2018-10-11T08:39:00.245Z,61.80
2018-10-11T08:41:29.098Z,62.50
2018-10-11T08:43:57.748Z,62.30
2018-10-11T08:46:26.327Z,61.40
2018-10-11T08:48:55.004Z,61.80
2018-10-11T08:51:23.729Z,61.90
2018-10-11T08:53:52.445Z,62.10
2018-10-11T08:56:21.103Z,60.80
2018-10-11T08:58:49.775Z,61.50
2018-10-11T09:01:18.345Z,62.10
2018-10-11T09:03:47.021Z,61.30
2018-10-11T09:06:15.542Z,61.50
2018-10-11T09:08:44.194Z,61.40
2018-10-11T09:11:12.932Z,63.60
2018-10-11T09:13:41.807Z,63.30
2018-10-11T09:16:10.601Z,60.50
2018-10-11T09:18:39.301Z,59.70
2018-10-11T09:21:07.967Z,61.10
2018-10-11T09:23:36.596Z,61.90
2018-10-11T09:26:05.764Z,60.30
2018-10-11T09:28:34.364Z,60.70
2018-10-11T09:31:04.062Z,60.10
2018-10-11T09:33:33.225Z,58.10
2018-10-11T09:36:01.604Z,59.20
2018-10-11T09:38:30.542Z,57.40
2018-10-11T09:40:59.255Z,58.40
2018-10-11T09:43:28.861Z,58.40
2018-10-11T09:46:01.336Z,57.90
2018-10-11T09:48:30.701Z,57.80
2018-10-11T09:50:59.641Z,57.00
2018-10-11T09:53:29.083Z,58.90
2018-10-11T09:55:58.827Z,60.50
2018-10-11T09:58:28.442Z,60.30
2018-10-11T10:01:02.787Z,58.30
2018-10-11T10:03:33.819Z,55.50
2018-10-11T10:06:03.851Z,57.20
2018-10-11T10:08:33.263Z,56.50
2018-10-11T10:11:02.660Z,57.50
2018-10-11T10:13:31.555Z,52.70
2018-10-11T10:16:00.330Z,54.20
2018-10-11T10:18:29.203Z,54.80
2018-10-11T10:20:58.708Z,54.20
2018-10-11T10:23:27.572Z,54.20
2018-10-11T10:25:56.291Z,55.00
2018-10-11T10:28:25.636Z,56.60
2018-10-11T10:30:55.360Z,54.40
2018-10-11T10:33:25.139Z,53.00
2018-10-11T10:35:53.933Z,52.80
2018-10-11T10:38:23.023Z,52.60
2018-10-11T10:40:52.089Z,55.00
2018-10-11T10:43:20.877Z,54.40
2018-10-11T10:45:49.591Z,54.00
2018-10-11T10:48:18.340Z,54.60
2018-10-11T10:50:47.332Z,50.10
2018-10-11T10:53:16.072Z,55.10
2018-10-11T10:55:44.976Z,55.20
2018-10-11T10:58:13.714Z,54.40
2018-10-11T11:00:42.380Z,52.70
2018-10-11T11:03:11.032Z,53.50
2018-10-11T11:05:39.823Z,52.90
2018-10-11T11:08:08.561Z,52.60
2018-10-11T11:10:37.289Z,49.90
2018-10-11T11:13:06.158Z,52.10
2018-10-11T11:15:35.178Z,50.40
2018-10-11T11:18:03.962Z,47.10
2018-10-11T11:20:33.701Z,49.90
2018-10-11T11:23:03.387Z,49.10
2018-10-11T11:25:32.308Z,46.20
2018-10-11T11:28:02.348Z,44.40
2018-10-11T11:30:31.410Z,45.00
2018-10-11T11:33:00.658Z,49.00
2018-10-11T11:35:29.553Z,45.80
2018-10-11T11:37:58.719Z,41.40
2018-10-11T11:40:27.852Z,43.00
2018-10-11T11:42:58.411Z,43.30
2018-10-11T11:45:27.169Z,44.50
2018-10-11T11:47:55.848Z,43.00
2018-10-11T11:50:24.715Z,44.00
2018-10-11T11:52:53.737Z,39.70
2018-10-11T11:55:22.482Z,41.00
2018-10-11T11:57:51.936Z,40.70
2018-10-11T12:00:21.589Z,41.20
2018-10-11T12:02:50.450Z,38.10
2018-10-11T12:05:20.646Z,38.70
2018-10-11T12:07:49.538Z,37.70
2018-10-11T12:10:18.577Z,36.70
2018-10-11T12:13:11.062Z,39.50
2018-10-11T12:15:42.891Z,39.70
2018-10-11T12:18:12.601Z,40.30
2018-10-11T12:20:42.689Z,39.20
2018-10-11T12:23:12.757Z,39.30
2018-10-11T12:25:45.060Z,38.10
2018-10-11T12:28:14.618Z,37.80
2018-10-11T12:30:45.090Z,35.50
2018-10-11T12:33:15.429Z,37.60
2018-10-11T12:35:45.277Z,36.30
2018-10-11T12:38:14.880Z,35.90
2018-10-11T12:40:45.209Z,36.60
2018-10-11T12:43:16.096Z,35.80
2018-10-11T12:45:47.303Z,35.40
2018-10-11T12:48:17.499Z,34.20
2018-10-11T12:50:48.263Z,35.10
2018-10-11T12:53:17.267Z,33.60
2018-10-11T12:55:46.457Z,35.20
2018-10-11T12:58:17.382Z,34.40
2018-10-11T13:00:46.457Z,33.90
2018-10-11T13:03:18.424Z,34.80
2018-10-11T13:05:49.450Z,34.70
2018-10-11T13:08:18.043Z,36.40
2018-10-11T13:10:46.683Z,34.10
2018-10-11T13:13:15.561Z,35.50
2018-10-11T13:15:44.461Z,34.00
2018-10-11T13:18:13.445Z,33.10
2018-10-11T13:20:43.085Z,34.50
2018-10-11T13:23:15.754Z,30.20
2018-10-11T13:25:42.022Z,29.90
2018-10-11T13:28:11.170Z,31.70
2018-10-11T13:30:40.700Z,33.10
2018-10-11T13:33:10.372Z,33.10
2018-10-11T13:35:40.112Z,32.60
2018-10-11T13:38:10.979Z,33.50
2018-10-11T13:40:39.927Z,30.90
2018-10-11T13:43:09.091Z,32.20
2018-10-11T13:45:37.780Z,31.30
2018-10-11T13:48:08.589Z,31.70
2018-10-11T13:50:40.187Z,32.10
2018-10-11T13:53:09.241Z,32.70
2018-10-11T13:55:45.271Z,32.70
2018-10-11T13:58:10.827Z,32.20
2018-10-11T14:00:40.151Z,31.80
2018-10-11T14:03:11.599Z,31.80
2018-10-11T14:05:43.474Z,30.30
2018-10-11T14:08:12.381Z,30.90
2018-10-11T14:13:21.385Z,30.20
2018-10-11T14:15:51.823Z,31.40
2018-10-11T14:18:22.699Z,31.30
2018-10-11T14:20:55.133Z,32.30
2018-10-11T14:23:25.769Z,30.60
2018-10-11T14:25:54.849Z,31.50
2018-10-11T14:31:00.532Z,31.00
2018-10-11T14:33:30.433Z,30.50
2018-10-11T14:35:59.441Z,30.20
2018-10-11T14:38:28.921Z,30.00
2018-10-11T14:40:59.224Z,29.20
2018-10-11T14:43:28.528Z,29.90
2018-10-11T14:45:57.151Z,30.00
2018-10-11T14:48:26.059Z,29.70
2018-10-11T14:50:56.459Z,30.50
2018-10-11T14:53:25.466Z,30.70
2018-10-11T14:55:54.297Z,30.20
2018-10-11T14:58:23.910Z,30.70
2018-10-11T15:00:52.810Z,31.10
2018-10-11T15:03:22.539Z,30.40
2018-10-11T15:05:51.307Z,31.10
2018-10-11T15:08:20.129Z,32.20
2018-10-11T15:10:49.015Z,33.20
2018-10-11T15:13:19.415Z,33.80
2018-10-11T15:15:48.570Z,34.20
2018-10-11T15:18:17.502Z,33.00
2018-10-11T15:20:47.326Z,33.80
2018-10-11T15:23:17.867Z,34.60
2018-10-11T15:25:46.645Z,34.50
2018-10-11T15:28:15.889Z,35.60
2018-10-11T15:30:46.224Z,34.20
2018-10-11T15:33:15.210Z,36.10
2018-10-11T15:35:43.823Z,35.50
2018-10-11T15:38:13.294Z,36.00
2018-10-11T15:40:41.983Z,36.10
2018-10-11T15:43:10.831Z,36.50
2018-10-11T15:45:39.524Z,35.90
2018-10-11T15:48:08.321Z,36.90
2018-10-11T15:50:36.893Z,37.20
2018-10-11T15:53:05.955Z,37.70
2018-10-11T15:55:35.851Z,37.30
2018-10-11T15:58:04.908Z,38.60
2018-10-11T16:00:34.655Z,38.30
2018-10-11T16:03:04.624Z,38.70
2018-10-11T16:05:34.092Z,39.20
2018-10-11T16:08:03.210Z,40.30
2018-10-11T16:10:34.304Z,41.10
2018-10-11T16:13:03.450Z,40.80
2018-10-11T16:15:32.740Z,40.80
2018-10-11T16:20:35.782Z,42.00
2018-10-11T16:23:05.768Z,44.10
2018-10-11T16:25:35.591Z,43.70
2018-10-11T16:30:39.174Z,43.70
2018-10-11T16:35:38.890Z,44.90
2018-10-11T16:38:12.709Z,45.90
2018-10-11T16:40:46.921Z,46.70
2018-10-11T16:43:18.014Z,46.60
2018-10-11T16:45:48.534Z,46.90
2018-10-11T16:48:18.388Z,47.10
2018-10-11T16:50:47.410Z,48.10
2018-10-11T16:53:18.491Z,48.00
2018-10-11T16:55:47.396Z,47.60
2018-10-11T16:58:18.919Z,48.30
2018-10-11T17:00:48.660Z,48.70
2018-10-11T17:03:20.576Z,49.00
2018-10-11T17:05:49.396Z,49.70
2018-10-11T17:08:18.341Z,50.20
2018-10-11T17:10:48.043Z,49.60
2018-10-11T17:13:18.726Z,49.80
2018-10-11T17:15:47.747Z,51.10
2018-10-11T17:18:16.733Z,51.80
2018-10-11T17:20:45.647Z,52.00
2018-10-11T17:23:15.493Z,52.90
2018-10-11T17:25:44.598Z,52.80
2018-10-11T17:28:15.221Z,54.00
2018-10-11T17:30:44.251Z,54.30
2018-10-11T17:33:13.204Z,54.10
2018-10-11T17:35:42.338Z,54.50
2018-10-11T17:38:11.504Z,54.90
2018-10-11T17:40:40.474Z,54.80
2018-10-11T17:43:10.375Z,55.10
2018-10-11T17:45:39.418Z,55.90
2018-10-11T17:48:08.466Z,55.40
2018-10-11T17:50:37.638Z,55.40
2018-10-11T17:53:10.062Z,55.20
2018-10-11T17:55:39.871Z,55.80
2018-10-11T17:58:09.818Z,55.80
2018-10-11T18:00:42.657Z,56.30
2018-10-11T18:03:12.206Z,56.80
2018-10-11T18:05:41.780Z,57.20
2018-10-11T18:08:10.692Z,57.20
2018-10-11T18:10:39.864Z,57.10
2018-10-11T18:13:09.443Z,58.30
2018-10-11T18:15:38.249Z,57.90
2018-10-11T18:18:10.653Z,58.30
2018-10-11T18:20:39.502Z,58.80
2018-10-11T18:23:09.171Z,59.40
2018-10-11T18:25:40.491Z,59.40
2018-10-11T18:28:09.223Z,60.40
2018-10-11T18:30:38.910Z,60.60
2018-10-11T18:33:07.760Z,60.60
2018-10-11T18:35:36.668Z,61.10
2018-10-11T18:38:05.935Z,62.50
2018-10-11T18:40:34.703Z,61.90
2018-10-11T18:43:03.666Z,62.80
2018-10-11T18:45:34.354Z,62.40
2018-10-11T18:50:36.739Z,62.60
2018-10-11T18:53:06.326Z,62.70
2018-10-11T18:55:35.065Z,63.00
2018-10-11T18:58:04.984Z,64.60
2018-10-11T19:00:35.755Z,63.80
2018-10-11T19:03:04.746Z,62.80
2018-10-11T19:05:33.654Z,62.90
2018-10-11T19:08:05.435Z,63.10
2018-10-11T19:10:34.647Z,63.80
2018-10-11T19:13:03.805Z,63.40
2018-10-11T19:15:32.734Z,63.70
2018-10-11T19:18:01.495Z,63.50
2018-10-11T19:20:30.438Z,63.60
2018-10-11T19:22:59.164Z,63.60
2018-10-11T19:25:29.119Z,64.20
2018-10-11T19:27:58.117Z,64.10
2018-10-11T19:30:26.963Z,64.60
2018-10-11T19:32:55.945Z,65.10
2018-10-11T19:35:25.393Z,65.20
2018-10-11T19:37:54.675Z,65.20
2018-10-11T19:40:23.443Z,65.20
2018-10-11T19:42:52.554Z,66.10
2018-10-11T19:45:21.504Z,66.10
2018-10-11T19:47:52.388Z,65.90
2018-10-11T19:50:22.093Z,67.20
2018-10-11T19:52:52.895Z,67.00
2018-10-11T19:55:21.736Z,66.70
2018-10-11T19:57:50.434Z,66.40
2018-10-11T20:00:19.364Z,65.80
2018-10-11T20:02:49.298Z,67.00
2018-10-11T20:05:20.476Z,67.30
2018-10-11T20:07:50.620Z,66.80
2018-10-11T20:10:24.029Z,66.80
2018-10-11T20:12:53.669Z,66.90
2018-10-11T20:15:34.560Z,67.00
2018-10-11T20:18:05.232Z,67.70
2018-10-11T20:20:35.562Z,68.10
2018-10-11T20:23:08.544Z,67.90
2018-10-11T20:25:39.570Z,67.70
2018-10-11T20:28:10.252Z,67.90
2018-10-11T20:30:40.124Z,67.80
2018-10-11T20:33:09.995Z,67.70
2018-10-11T20:35:40.638Z,66.20
2018-10-11T20:38:10.754Z,66.30
2018-10-11T20:40:41.865Z,66.80
2018-10-11T20:43:15.758Z,66.60
2018-10-11T20:45:46.083Z,67.10
2018-10-11T20:48:16.227Z,66.50
2018-10-11T20:50:46.669Z,67.20
2018-10-11T20:53:16.877Z,67.10
2018-10-11T20:55:47.985Z,67.80
2018-10-11T20:58:18.512Z,67.60
2018-10-11T21:00:48.379Z,68.10
2018-10-11T21:03:18.801Z,68.20
2018-10-11T21:05:48.266Z,68.80
2018-10-11T21:08:18.092Z,67.60
2018-10-11T21:10:47.757Z,67.30
2018-10-11T21:13:21.032Z,68.00
2018-10-11T21:15:51.838Z,67.40
2018-10-11T21:18:21.875Z,67.60
2018-10-11T21:20:51.196Z,67.40
2018-10-11T21:23:21.411Z,66.60
2018-10-11T21:25:51.796Z,67.10
2018-10-11T21:28:21.736Z,66.70
2018-10-11T21:30:51.962Z,67.60
2018-10-11T21:33:22.016Z,67.40
2018-10-11T21:35:51.920Z,67.20
2018-10-11T21:38:28.678Z,68.30
2018-10-11T21:40:59.683Z,67.30
2018-10-11T21:43:29.630Z,67.50
2018-10-11T21:46:00.217Z,67.40
2018-10-11T21:48:29.316Z,67.70
2018-10-11T21:50:59.090Z,67.00
2018-10-11T21:53:28.976Z,67.00
2018-10-11T21:55:58.871Z,66.30
2018-10-11T21:58:29.356Z,66.10
2018-10-11T22:01:04.962Z,66.80
2018-10-11T22:03:35.617Z,66.80
2018-10-11T22:06:05.415Z,67.20
2018-10-11T22:08:35.046Z,66.30
2018-10-11T22:11:06.383Z,66.60
2018-10-11T22:13:37.173Z,65.80
2018-10-11T22:16:08.603Z,66.00
2018-10-11T22:18:39.141Z,66.00
2018-10-11T22:21:09.349Z,65.50
2018-10-11T22:23:41.650Z,66.50
2018-10-11T22:26:12.557Z,65.90
2018-10-11T22:28:44.176Z,65.00
2018-10-11T22:31:15.794Z,65.10
2018-10-11T22:33:49.980Z,65.00
2018-10-11T22:36:21.817Z,65.60
2018-10-11T22:38:51.045Z,64.20
2018-10-11T22:41:21.619Z,63.70
2018-10-11T22:43:51.955Z,63.10
2018-10-11T22:46:24.135Z,63.00
2018-10-11T22:48:56.061Z,63.90
2018-10-11T22:51:25.966Z,64.10
2018-10-11T22:53:57.901Z,64.10
2018-10-11T22:56:31.066Z,63.60
2018-10-11T22:59:00.188Z,62.80
2018-10-11T23:01:32.776Z,62.40
2018-10-11T23:04:09.125Z,62.00
2018-10-11T23:06:43.015Z,62.60
2018-10-11T23:09:12.293Z,61.90
2018-10-11T23:11:42.097Z,62.70
2018-10-11T23:14:13.579Z,63.40
2018-10-11T23:16:45.401Z,67.60
2018-10-11T23:19:18.302Z,70.90
2018-10-11T23:21:48.392Z,71.70
2018-10-11T23:24:19.316Z,73.40
2018-10-11T23:26:50.545Z,74.20
2018-10-11T23:29:20.413Z,74.20
2018-10-11T23:31:49.876Z,74.40
2018-10-11T23:34:21.342Z,74.20
2018-10-11T23:36:52.678Z,74.40
2018-10-11T23:39:25.513Z,74.40
2018-10-11T23:41:55.394Z,75.00
2018-10-11T23:44:26.043Z,75.60
2018-10-11T23:46:56.929Z,75.80
2018-10-11T23:49:27.112Z,74.90
2018-10-11T23:51:57.330Z,77.00
2018-10-11T23:54:28.065Z,76.10
2018-10-11T23:56:57.570Z,75.90
2018-10-11T23:59:29.989Z,75.70
